• Join FlightAware (Why Join?)
  • Login
  • US Flag 
04:23PM EDT


 

Airport Tracker/Info


-or-


 

Live Flight TrackerFlight Track Log ✈ N830QS ✈ 10-Oct-2013 ✈ KTPA - KMIA

Flight Track Log - Related Links

Times and Time Zones

All times are in EDT time to prevent confusion due to time zone crossing. See the N830QS flight status page for this flight to view local times or setup timezone preferences in your user account.

Time Position Orientation Groundspeed Altitude Reporting Facility
EDT Latitude Longitude Course Direction KTS MPH feet Rate Location/Type
03:11PM 27.9833 -82.5333 25° Northeast 164 189 800  Level Tampa TRACON
03:13PM 28.0564 -82.4956 25° Northeast 221 254 7,200 3,960 Climbing Miami Center
03:14PM 28.0000 -82.4481 143° Southeast 120 138 11,000 2,400 Climbing Miami Center
03:15PM 27.9175 -82.4206 164° South 224 258 12,000 1,200 Climbing Miami Center
03:16PM 27.8228 -82.3925 165° South 298 343 13,500 960 Climbing Miami Center
03:17PM 27.7256 -82.3667 167° South 328 377 14,000 1,020 Climbing Miami Center
03:18PM 27.6286 -82.3386 166° South 353 406 15,600 1,680 Climbing Miami Center
03:19PM 27.5300 -82.3011 161° South 369 425 17,400 1,620 Climbing Miami Center
03:20PM 27.4311 -82.2636 161° South 385 443 18,900 780 Climbing Miami Center
03:21PM 27.3436 -82.2033 149° Southeast 392 451 19,000  Climbing Miami Center
03:22PM 27.2519 -82.1408 149° Southeast 392 451 19,000  Level Miami Center
03:23PM 27.1483 -82.0661 147° Southeast 398 458 19,000  Level Miami Center
03:24PM 27.0567 -81.9992 147° Southeast 398 458 19,000  Level Miami Center
03:25PM 26.9753 -81.9397 147° Southeast 393 452 19,000  Level Miami Center
03:26PM 26.8883 -81.8589 140° Southeast 399 459 19,000  Level Miami Center
03:27PM 26.8056 -81.7833 141° Southeast 399 459 19,000  Level Miami Center
03:28PM 26.7225 -81.7078 141° Southeast 394 453 19,000  Level Miami Center
03:29PM 26.6269 -81.6225 141° Southeast 394 453 19,000  Level Miami Center
03:30PM 26.5500 -81.5544 142° Southeast 394 453 19,000 -480 Level Miami Center
03:31PM 26.4669 -81.4769 140° Southeast 394 453 18,100 -1,320 Descending Miami Center
03:32PM 26.3642 -81.4242 155° Southeast 373 429 16,400 -1,620 Descending Miami Center
03:33PM 26.2692 -81.3858 160° South 373 429 14,900 -1,500 Descending Miami Center
03:34PM 26.1722 -81.3450 159° South 365 420 13,400 -1,500 Descending Miami Center
03:35PM 26.0756 -81.3044 159° South 365 420 11,900 -1,200 Descending Miami Center
03:36PM 25.9806 -81.2664 160° South 365 420 11,000 -540 Descending Miami Center
03:37PM 25.9197 -81.2086 139° Southeast 328 377 10,900 -600 Descending Miami Center
03:38PM 25.9411 -81.1125 76° East 261 300 9,900 -780 Descending Miami Center
03:38PM 25.9483 -81.0850 74° East 321 369 10,000 -1,020 Climbing Miami Center
03:39PM 25.9708 -81.0233 68° East 270 311 8,900 -1,620 Descending Miami Center
03:39PM 25.9531 -80.9881 119° Southeast 296 341 8,200 -1,020 Descending Miami Center
03:40PM 25.9183 -80.9639 148° Southeast 263 303 7,900 -180 Descending Miami Center
03:41PM 25.8833 -80.9419 151° Southeast 246 283 8,000  Climbing Miami Center
03:41PM 25.8761 -80.9092 104° East 244 281 7,900 -1,140 Descending Miami Center
03:42PM 25.8667 -80.8675 104° East 250 288 6,900 -1,440 Descending Miami Center
03:42PM 25.8656 -80.8350 92° East 233 268 6,500 -840 Descending Miami Center
03:43PM 25.8583 -80.7886 100° East 219 252 6,000 -900 Descending Miami Center
03:43PM 25.8569 -80.7633 93° East 228 262 5,600 -1,320 Descending Miami Center
03:44PM 25.8497 -80.7236 101° East 209 241 4,700 -1,440 Descending Miami Center
03:44PM 25.8503 -80.7006 88° East 216 249 4,200 -1,200 Descending Miami Center
03:45PM 25.8428 -80.6658 103° East 200 230 3,600 -1,140 Descending Miami Center
03:45PM 25.8414 -80.6403 93° East 211 243 3,100 -600 Descending Miami Center
03:46PM 25.8339 -80.6056 103° East 200 230 3,000 -240 Descending Miami Center
03:46PM 25.8325 -80.5778 93° East 200 230 2,900  Descending Miami Center
03:47PM 25.8167 -80.5450 118° Southeast 193 222 3,000  Climbing Miami Center
03:47PM 25.8153 -80.5219 94° East 200 230 2,900  Descending Miami Center
03:48PM 25.7994 -80.4775 112° Southeast 194 223 3,000  Climbing Miami Center
03:48PM 25.7997 -80.4661 88° East 200 230 2,900 -180 Descending Miami Center
03:49PM 25.7944 -80.4336 100° East 178 205 2,900 -900 Level Miami Center
03:50PM 25.7956 -80.3828 89° East 163 188 1,500 -1,140 Descending Miami Center
03:51PM 25.7986 -80.3414 85° East 123 142 700 -720 Descending Miami Center
03:52PM 25.7994 -80.3067 88° East 110 127 100 -600 Descending Miami Center
03:54PM 25.7954 -80.2901 20° North  Level Estimated